sensor_id;sensor_type;location;lat;lon;timestamp;P1;durP1;ratioP1;P2;durP2;ratioP2
9138;SDS011;4604;48.616;9.548;2023-11-19T00:01:41;3.10;;;2.50;;
9138;SDS011;4604;48.616;9.548;2023-11-19T00:04:08;3.57;;;2.73;;
9138;SDS011;4604;48.616;9.548;2023-11-19T00:06:36;3.47;;;2.67;;
9138;SDS011;4604;48.616;9.548;2023-11-19T00:09:03;3.17;;;2.60;;
9138;SDS011;4604;48.616;9.548;2023-11-19T00:11:30;3.27;;;2.17;;
9138;SDS011;4604;48.616;9.548;2023-11-19T00:13:56;3.63;;;2.50;;
9138;SDS011;4604;48.616;9.548;2023-11-19T00:16:23;2.73;;;2.53;;
9138;SDS011;4604;48.616;9.548;2023-11-19T00:18:49;3.93;;;2.77;;
9138;SDS011;4604;48.616;9.548;2023-11-19T00:21:16;3.13;;;2.70;;
9138;SDS011;4604;48.616;9.548;2023-11-19T00:23:44;2.40;;;2.20;;
9138;SDS011;4604;48.616;9.548;2023-11-19T00:26:10;2.50;;;2.20;;
9138;SDS011;4604;48.616;9.548;2023-11-19T00:28:40;2.10;;;1.90;;
9138;SDS011;4604;48.616;9.548;2023-11-19T00:31:08;2.30;;;2.10;;
9138;SDS011;4604;48.616;9.548;2023-11-19T00:33:34;2.30;;;2.07;;
9138;SDS011;4604;48.616;9.548;2023-11-19T00:36:02;3.03;;;2.20;;
9138;SDS011;4604;48.616;9.548;2023-11-19T00:38:29;3.53;;;2.00;;
9138;SDS011;4604;48.616;9.548;2023-11-19T00:40:58;2.17;;;1.70;;
9138;SDS011;4604;48.616;9.548;2023-11-19T00:43:24;2.73;;;2.20;;
9138;SDS011;4604;48.616;9.548;2023-11-19T00:45:51;1.77;;;1.60;;
9138;SDS011;4604;48.616;9.548;2023-11-19T00:48:17;2.40;;;1.80;;
9138;SDS011;4604;48.616;9.548;2023-11-19T00:50:44;1.73;;;1.60;;
9138;SDS011;4604;48.616;9.548;2023-11-19T00:53:11;1.73;;;1.40;;
9138;SDS011;4604;48.616;9.548;2023-11-19T00:55:38;3.10;;;1.60;;
9138;SDS011;4604;48.616;9.548;2023-11-19T00:58:06;2.20;;;1.70;;
9138;SDS011;4604;48.616;9.548;2023-11-19T01:00:32;1.87;;;1.60;;
9138;SDS011;4604;48.616;9.548;2023-11-19T01:02:59;1.67;;;1.57;;
9138;SDS011;4604;48.616;9.548;2023-11-19T01:05:26;1.43;;;1.33;;
9138;SDS011;4604;48.616;9.548;2023-11-19T01:07:53;1.30;;;1.20;;
9138;SDS011;4604;48.616;9.548;2023-11-19T01:10:20;2.40;;;1.33;;
9138;SDS011;4604;48.616;9.548;2023-11-19T01:12:46;0.90;;;0.90;;
9138;SDS011;4604;48.616;9.548;2023-11-19T01:15:14;1.10;;;1.00;;
9138;SDS011;4604;48.616;9.548;2023-11-19T01:17:43;1.03;;;0.90;;
9138;SDS011;4604;48.616;9.548;2023-11-19T01:20:10;1.30;;;1.20;;
9138;SDS011;4604;48.616;9.548;2023-11-19T01:22:38;1.13;;;1.03;;
9138;SDS011;4604;48.616;9.548;2023-11-19T01:25:05;1.10;;;1.00;;
9138;SDS011;4604;48.616;9.548;2023-11-19T01:27:32;1.10;;;0.90;;
9138;SDS011;4604;48.616;9.548;2023-11-19T01:30:00;0.63;;;0.63;;
9138;SDS011;4604;48.616;9.548;2023-11-19T01:32:30;0.93;;;0.60;;
9138;SDS011;4604;48.616;9.548;2023-11-19T01:34:56;0.40;;;0.40;;
9138;SDS011;4604;48.616;9.548;2023-11-19T01:37:23;0.70;;;0.70;;
9138;SDS011;4604;48.616;9.548;2023-11-19T01:39:49;0.73;;;0.73;;
9138;SDS011;4604;48.616;9.548;2023-11-19T01:42:16;0.57;;;0.50;;
9138;SDS011;4604;48.616;9.548;2023-11-19T01:44:53;0.30;;;0.30;;
9138;SDS011;4604;48.616;9.548;2023-11-19T01:47:21;0.30;;;0.30;;
9138;SDS011;4604;48.616;9.548;2023-11-19T01:49:49;0.40;;;0.40;;
9138;SDS011;4604;48.616;9.548;2023-11-19T01:52:17;0.40;;;0.40;;
9138;SDS011;4604;48.616;9.548;2023-11-19T01:54:44;0.30;;;0.30;;
9138;SDS011;4604;48.616;9.548;2023-11-19T01:57:11;0.10;;;0.10;;
9138;SDS011;4604;48.616;9.548;2023-11-19T01:59:38;0.30;;;0.30;;
9138;SDS011;4604;48.616;9.548;2023-11-19T02:02:05;0.10;;;0.10;;
9138;SDS011;4604;48.616;9.548;2023-11-19T02:04:32;0.77;;;0.40;;
9138;SDS011;4604;48.616;9.548;2023-11-19T02:07:00;0.40;;;0.30;;
9138;SDS011;4604;48.616;9.548;2023-11-19T02:09:27;0.30;;;0.30;;
9138;SDS011;4604;48.616;9.548;2023-11-19T02:11:55;1.03;;;0.50;;
9138;SDS011;4604;48.616;9.548;2023-11-19T02:14:21;0.20;;;0.20;;
9138;SDS011;4604;48.616;9.548;2023-11-19T02:16:51;1.50;;;0.50;;
9138;SDS011;4604;48.616;9.548;2023-11-19T02:19:18;0.20;;;0.20;;
9138;SDS011;4604;48.616;9.548;2023-11-19T02:21:45;0.40;;;0.40;;
9138;SDS011;4604;48.616;9.548;2023-11-19T02:24:14;0.37;;;0.30;;
9138;SDS011;4604;48.616;9.548;2023-11-19T02:26:44;0.40;;;0.40;;
9138;SDS011;4604;48.616;9.548;2023-11-19T02:29:19;0.73;;;0.40;;
9138;SDS011;4604;48.616;9.548;2023-11-19T02:31:46;0.40;;;0.40;;
9138;SDS011;4604;48.616;9.548;2023-11-19T02:34:12;0.40;;;0.37;;
9138;SDS011;4604;48.616;9.548;2023-11-19T02:36:39;0.53;;;0.20;;
9138;SDS011;4604;48.616;9.548;2023-11-19T02:39:06;0.20;;;0.20;;
9138;SDS011;4604;48.616;9.548;2023-11-19T02:41:36;0.47;;;0.47;;
9138;SDS011;4604;48.616;9.548;2023-11-19T02:44:05;0.30;;;0.20;;
9138;SDS011;4604;48.616;9.548;2023-11-19T02:46:33;0.30;;;0.30;;
9138;SDS011;4604;48.616;9.548;2023-11-19T02:49:00;1.37;;;0.63;;
9138;SDS011;4604;48.616;9.548;2023-11-19T02:51:26;0.23;;;0.23;;
9138;SDS011;4604;48.616;9.548;2023-11-19T02:53:55;0.87;;;0.40;;
9138;SDS011;4604;48.616;9.548;2023-11-19T02:56:21;1.50;;;0.43;;
9138;SDS011;4604;48.616;9.548;2023-11-19T02:58:51;1.57;;;0.40;;
9138;SDS011;4604;48.616;9.548;2023-11-19T03:01:22;0.40;;;0.40;;
9138;SDS011;4604;48.616;9.548;2023-11-19T03:03:55;0.30;;;0.30;;
9138;SDS011;4604;48.616;9.548;2023-11-19T03:06:23;0.57;;;0.57;;
9138;SDS011;4604;48.616;9.548;2023-11-19T03:08:49;0.37;;;0.33;;
9138;SDS011;4604;48.616;9.548;2023-11-19T03:11:16;1.00;;;0.40;;
9138;SDS011;4604;48.616;9.548;2023-11-19T03:13:42;0.20;;;0.20;;
9138;SDS011;4604;48.616;9.548;2023-11-19T03:16:09;0.90;;;0.40;;
9138;SDS011;4604;48.616;9.548;2023-11-19T03:18:36;6.77;;;0.50;;
9138;SDS011;4604;48.616;9.548;2023-11-19T03:21:05;0.43;;;0.43;;
9138;SDS011;4604;48.616;9.548;2023-11-19T03:23:32;0.50;;;0.50;;
9138;SDS011;4604;48.616;9.548;2023-11-19T03:26:00;0.40;;;0.40;;
9138;SDS011;4604;48.616;9.548;2023-11-19T03:28:28;0.43;;;0.40;;
9138;SDS011;4604;48.616;9.548;2023-11-19T03:30:55;0.50;;;0.50;;
9138;SDS011;4604;48.616;9.548;2023-11-19T03:33:22;1.50;;;0.20;;
9138;SDS011;4604;48.616;9.548;2023-11-19T03:35:50;0.97;;;0.50;;
9138;SDS011;4604;48.616;9.548;2023-11-19T03:38:18;0.30;;;0.30;;
9138;SDS011;4604;48.616;9.548;2023-11-19T03:40:45;0.40;;;0.40;;
9138;SDS011;4604;48.616;9.548;2023-11-19T03:43:12;1.70;;;0.50;;
9138;SDS011;4604;48.616;9.548;2023-11-19T03:45:39;1.03;;;0.50;;
9138;SDS011;4604;48.616;9.548;2023-11-19T03:48:05;0.63;;;0.60;;
9138;SDS011;4604;48.616;9.548;2023-11-19T03:50:32;0.67;;;0.50;;
9138;SDS011;4604;48.616;9.548;2023-11-19T03:52:58;0.63;;;0.40;;
9138;SDS011;4604;48.616;9.548;2023-11-19T03:55:26;0.40;;;0.40;;
9138;SDS011;4604;48.616;9.548;2023-11-19T03:57:54;0.40;;;0.40;;
9138;SDS011;4604;48.616;9.548;2023-11-19T04:00:20;0.60;;;0.60;;
9138;SDS011;4604;48.616;9.548;2023-11-19T04:02:47;0.30;;;0.30;;
9138;SDS011;4604;48.616;9.548;2023-11-19T04:05:14;0.60;;;0.50;;
9138;SDS011;4604;48.616;9.548;2023-11-19T04:07:40;0.40;;;0.40;;
9138;SDS011;4604;48.616;9.548;2023-11-19T04:10:07;0.30;;;0.30;;
9138;SDS011;4604;48.616;9.548;2023-11-19T04:12:36;0.67;;;0.53;;
9138;SDS011;4604;48.616;9.548;2023-11-19T04:15:03;0.30;;;0.30;;
9138;SDS011;4604;48.616;9.548;2023-11-19T04:17:30;0.73;;;0.60;;
9138;SDS011;4604;48.616;9.548;2023-11-19T04:19:57;0.87;;;0.63;;
9138;SDS011;4604;48.616;9.548;2023-11-19T04:22:24;0.40;;;0.40;;
9138;SDS011;4604;48.616;9.548;2023-11-19T04:24:51;0.30;;;0.20;;
9138;SDS011;4604;48.616;9.548;2023-11-19T04:27:18;0.33;;;0.20;;
9138;SDS011;4604;48.616;9.548;2023-11-19T04:29:46;1.70;;;0.30;;
9138;SDS011;4604;48.616;9.548;2023-11-19T04:32:13;0.10;;;0.10;;
9138;SDS011;4604;48.616;9.548;2023-11-19T04:34:40;0.20;;;0.20;;
9138;SDS011;4604;48.616;9.548;2023-11-19T04:37:07;0.17;;;0.17;;
9138;SDS011;4604;48.616;9.548;2023-11-19T04:39:34;0.20;;;0.20;;
9138;SDS011;4604;48.616;9.548;2023-11-19T04:42:02;0.10;;;0.10;;
9138;SDS011;4604;48.616;9.548;2023-11-19T04:44:31;0.30;;;0.30;;
9138;SDS011;4604;48.616;9.548;2023-11-19T04:46:59;0.20;;;0.20;;
9138;SDS011;4604;48.616;9.548;2023-11-19T04:49:26;0.20;;;0.20;;
9138;SDS011;4604;48.616;9.548;2023-11-19T04:51:53;0.20;;;0.20;;
9138;SDS011;4604;48.616;9.548;2023-11-19T04:54:19;0.20;;;0.20;;
9138;SDS011;4604;48.616;9.548;2023-11-19T04:56:46;0.10;;;0.10;;
9138;SDS011;4604;48.616;9.548;2023-11-19T04:59:12;0.20;;;0.20;;
9138;SDS011;4604;48.616;9.548;2023-11-19T05:01:39;0.53;;;0.30;;
9138;SDS011;4604;48.616;9.548;2023-11-19T05:04:08;0.57;;;0.20;;
9138;SDS011;4604;48.616;9.548;2023-11-19T05:06:35;0.00;;;0.00;;
9138;SDS011;4604;48.616;9.548;2023-11-19T05:09:02;0.60;;;0.50;;
9138;SDS011;4604;48.616;9.548;2023-11-19T05:11:32;0.60;;;0.60;;
9138;SDS011;4604;48.616;9.548;2023-11-19T05:13:59;0.40;;;0.40;;
9138;SDS011;4604;48.616;9.548;2023-11-19T05:16:25;0.10;;;0.10;;
9138;SDS011;4604;48.616;9.548;2023-11-19T05:18:52;0.13;;;0.13;;
9138;SDS011;4604;48.616;9.548;2023-11-19T05:21:20;0.20;;;0.20;;
9138;SDS011;4604;48.616;9.548;2023-11-19T05:23:46;0.30;;;0.20;;
9138;SDS011;4604;48.616;9.548;2023-11-19T05:26:17;0.43;;;0.20;;
9138;SDS011;4604;48.616;9.548;2023-11-19T05:28:45;0.10;;;0.10;;
9138;SDS011;4604;48.616;9.548;2023-11-19T05:31:12;0.10;;;0.10;;
9138;SDS011;4604;48.616;9.548;2023-11-19T05:33:38;0.17;;;0.17;;
9138;SDS011;4604;48.616;9.548;2023-11-19T05:36:06;0.30;;;0.23;;
9138;SDS011;4604;48.616;9.548;2023-11-19T05:38:35;0.00;;;0.00;;
9138;SDS011;4604;48.616;9.548;2023-11-19T05:41:01;0.20;;;0.20;;
9138;SDS011;4604;48.616;9.548;2023-11-19T05:43:28;0.10;;;0.10;;
9138;SDS011;4604;48.616;9.548;2023-11-19T05:45:55;0.30;;;0.30;;
9138;SDS011;4604;48.616;9.548;2023-11-19T05:48:21;0.67;;;0.40;;
9138;SDS011;4604;48.616;9.548;2023-11-19T05:50:48;3.03;;;2.30;;
9138;SDS011;4604;48.616;9.548;2023-11-19T05:53:15;2.27;;;1.60;;
9138;SDS011;4604;48.616;9.548;2023-11-19T05:55:43;1.50;;;1.40;;
9138;SDS011;4604;48.616;9.548;2023-11-19T05:58:14;0.40;;;0.40;;
9138;SDS011;4604;48.616;9.548;2023-11-19T06:00:40;0.83;;;0.83;;
9138;SDS011;4604;48.616;9.548;2023-11-19T06:03:08;2.63;;;0.60;;
9138;SDS011;4604;48.616;9.548;2023-11-19T06:05:34;0.30;;;0.30;;
9138;SDS011;4604;48.616;9.548;2023-11-19T06:08:01;0.53;;;0.53;;
9138;SDS011;4604;48.616;9.548;2023-11-19T06:10:28;0.30;;;0.30;;
9138;SDS011;4604;48.616;9.548;2023-11-19T06:12:57;0.50;;;0.30;;
9138;SDS011;4604;48.616;9.548;2023-11-19T06:15:24;0.67;;;0.67;;
9138;SDS011;4604;48.616;9.548;2023-11-19T06:17:51;0.30;;;0.30;;
9138;SDS011;4604;48.616;9.548;2023-11-19T06:20:17;0.23;;;0.23;;
9138;SDS011;4604;48.616;9.548;2023-11-19T06:22:45;0.40;;;0.40;;
9138;SDS011;4604;48.616;9.548;2023-11-19T06:25:11;0.77;;;0.17;;
9138;SDS011;4604;48.616;9.548;2023-11-19T06:27:39;0.30;;;0.30;;
9138;SDS011;4604;48.616;9.548;2023-11-19T06:30:08;0.23;;;0.23;;
9138;SDS011;4604;48.616;9.548;2023-11-19T06:32:35;0.20;;;0.20;;
9138;SDS011;4604;48.616;9.548;2023-11-19T06:35:02;0.20;;;0.20;;
9138;SDS011;4604;48.616;9.548;2023-11-19T06:37:29;0.83;;;0.37;;
9138;SDS011;4604;48.616;9.548;2023-11-19T06:39:56;0.30;;;0.30;;
9138;SDS011;4604;48.616;9.548;2023-11-19T06:42:22;0.30;;;0.30;;
9138;SDS011;4604;48.616;9.548;2023-11-19T06:44:49;2.27;;;0.23;;
9138;SDS011;4604;48.616;9.548;2023-11-19T06:47:17;0.33;;;0.30;;
9138;SDS011;4604;48.616;9.548;2023-11-19T06:49:44;0.20;;;0.20;;
9138;SDS011;4604;48.616;9.548;2023-11-19T06:52:11;0.30;;;0.30;;
9138;SDS011;4604;48.616;9.548;2023-11-19T06:54:37;0.30;;;0.30;;
9138;SDS011;4604;48.616;9.548;2023-11-19T06:57:04;0.27;;;0.27;;
9138;SDS011;4604;48.616;9.548;2023-11-19T06:59:31;0.40;;;0.10;;
9138;SDS011;4604;48.616;9.548;2023-11-19T07:01:57;0.40;;;0.10;;
9138;SDS011;4604;48.616;9.548;2023-11-19T07:04:25;0.20;;;0.20;;
9138;SDS011;4604;48.616;9.548;2023-11-19T07:06:52;0.30;;;0.30;;
9138;SDS011;4604;48.616;9.548;2023-11-19T07:09:19;0.30;;;0.30;;
9138;SDS011;4604;48.616;9.548;2023-11-19T07:11:46;0.20;;;0.20;;
9138;SDS011;4604;48.616;9.548;2023-11-19T07:14:13;0.30;;;0.20;;
9138;SDS011;4604;48.616;9.548;2023-11-19T07:16:39;0.70;;;0.70;;
9138;SDS011;4604;48.616;9.548;2023-11-19T07:19:06;2.33;;;1.00;;
9138;SDS011;4604;48.616;9.548;2023-11-19T07:21:34;0.60;;;0.60;;
9138;SDS011;4604;48.616;9.548;2023-11-19T07:24:04;0.63;;;0.53;;
9138;SDS011;4604;48.616;9.548;2023-11-19T07:26:32;0.50;;;0.50;;
9138;SDS011;4604;48.616;9.548;2023-11-19T07:28:58;0.20;;;0.20;;
9138;SDS011;4604;48.616;9.548;2023-11-19T07:31:26;0.23;;;0.23;;
9138;SDS011;4604;48.616;9.548;2023-11-19T07:33:53;0.50;;;0.40;;
9138;SDS011;4604;48.616;9.548;2023-11-19T07:36:20;0.40;;;0.20;;
9138;SDS011;4604;48.616;9.548;2023-11-19T07:38:47;0.23;;;0.20;;
9138;SDS011;4604;48.616;9.548;2023-11-19T07:41:15;0.80;;;0.50;;
9138;SDS011;4604;48.616;9.548;2023-11-19T07:43:43;0.40;;;0.40;;
9138;SDS011;4604;48.616;9.548;2023-11-19T07:46:11;0.80;;;0.80;;
9138;SDS011;4604;48.616;9.548;2023-11-19T07:48:38;0.50;;;0.50;;
9138;SDS011;4604;48.616;9.548;2023-11-19T07:51:05;0.70;;;0.70;;
9138;SDS011;4604;48.616;9.548;2023-11-19T07:53:32;0.93;;;0.83;;
9138;SDS011;4604;48.616;9.548;2023-11-19T07:56:00;0.30;;;0.30;;
9138;SDS011;4604;48.616;9.548;2023-11-19T07:58:27;0.30;;;0.30;;
9138;SDS011;4604;48.616;9.548;2023-11-19T08:00:53;0.23;;;0.23;;
9138;SDS011;4604;48.616;9.548;2023-11-19T08:03:20;0.40;;;0.40;;
9138;SDS011;4604;48.616;9.548;2023-11-19T08:05:48;1.13;;;0.33;;
9138;SDS011;4604;48.616;9.548;2023-11-19T08:08:14;0.30;;;0.30;;
9138;SDS011;4604;48.616;9.548;2023-11-19T08:10:41;1.60;;;0.20;;
9138;SDS011;4604;48.616;9.548;2023-11-19T08:13:10;0.40;;;0.40;;
9138;SDS011;4604;48.616;9.548;2023-11-19T08:15:37;0.23;;;0.20;;
9138;SDS011;4604;48.616;9.548;2023-11-19T08:18:05;1.60;;;1.40;;
9138;SDS011;4604;48.616;9.548;2023-11-19T08:20:32;0.50;;;0.50;;
9138;SDS011;4604;48.616;9.548;2023-11-19T08:22:59;0.60;;;0.60;;
9138;SDS011;4604;48.616;9.548;2023-11-19T08:25:25;1.83;;;0.53;;
9138;SDS011;4604;48.616;9.548;2023-11-19T08:27:52;0.77;;;0.77;;
9138;SDS011;4604;48.616;9.548;2023-11-19T08:30:20;0.80;;;0.80;;
9138;SDS011;4604;48.616;9.548;2023-11-19T08:32:46;0.77;;;0.77;;
9138;SDS011;4604;48.616;9.548;2023-11-19T08:35:13;0.63;;;0.50;;
9138;SDS011;4604;48.616;9.548;2023-11-19T08:37:41;0.60;;;0.53;;
9138;SDS011;4604;48.616;9.548;2023-11-19T08:40:07;1.10;;;1.00;;
9138;SDS011;4604;48.616;9.548;2023-11-19T08:42:35;1.33;;;0.50;;
9138;SDS011;4604;48.616;9.548;2023-11-19T08:45:04;0.30;;;0.30;;
9138;SDS011;4604;48.616;9.548;2023-11-19T08:47:33;0.40;;;0.40;;
9138;SDS011;4604;48.616;9.548;2023-11-19T08:49:59;1.27;;;0.63;;
9138;SDS011;4604;48.616;9.548;2023-11-19T08:52:26;0.40;;;0.40;;
9138;SDS011;4604;48.616;9.548;2023-11-19T08:54:52;1.03;;;0.70;;
9138;SDS011;4604;48.616;9.548;2023-11-19T08:57:19;1.23;;;0.57;;
9138;SDS011;4604;48.616;9.548;2023-11-19T08:59:46;0.57;;;0.43;;
9138;SDS011;4604;48.616;9.548;2023-11-19T09:02:12;0.87;;;0.63;;
9138;SDS011;4604;48.616;9.548;2023-11-19T09:04:40;0.67;;;0.53;;
9138;SDS011;4604;48.616;9.548;2023-11-19T09:07:07;1.17;;;0.77;;
9138;SDS011;4604;48.616;9.548;2023-11-19T09:09:34;0.70;;;0.60;;
9138;SDS011;4604;48.616;9.548;2023-11-19T09:12:01;0.60;;;0.60;;
9138;SDS011;4604;48.616;9.548;2023-11-19T09:14:28;1.00;;;0.50;;
9138;SDS011;4604;48.616;9.548;2023-11-19T09:16:55;1.20;;;0.50;;
9138;SDS011;4604;48.616;9.548;2023-11-19T09:19:22;0.63;;;0.63;;
9138;SDS011;4604;48.616;9.548;2023-11-19T09:21:50;0.50;;;0.43;;
9138;SDS011;4604;48.616;9.548;2023-11-19T09:24:16;0.40;;;0.40;;
9138;SDS011;4604;48.616;9.548;2023-11-19T09:26:43;0.77;;;0.77;;
9138;SDS011;4604;48.616;9.548;2023-11-19T09:29:09;0.60;;;0.53;;
9138;SDS011;4604;48.616;9.548;2023-11-19T09:31:37;0.85;;;0.80;;
9138;SDS011;4604;48.616;9.548;2023-11-19T09:34:04;0.95;;;0.75;;
9138;SDS011;4604;48.616;9.548;2023-11-19T09:36:31;0.90;;;0.83;;
9138;SDS011;4604;48.616;9.548;2023-11-19T09:38:59;0.70;;;0.68;;
9138;SDS011;4604;48.616;9.548;2023-11-19T09:41:27;0.60;;;0.40;;
9138;SDS011;4604;48.616;9.548;2023-11-19T09:43:54;0.40;;;0.40;;
9138;SDS011;4604;48.616;9.548;2023-11-19T09:46:21;0.45;;;0.40;;
9138;SDS011;4604;48.616;9.548;2023-11-19T09:48:49;1.25;;;0.68;;
9138;SDS011;4604;48.616;9.548;2023-11-19T09:51:19;0.88;;;0.40;;
9138;SDS011;4604;48.616;9.548;2023-11-19T09:53:46;0.57;;;0.57;;
9138;SDS011;4604;48.616;9.548;2023-11-19T09:56:14;0.60;;;0.57;;
9138;SDS011;4604;48.616;9.548;2023-11-19T09:58:44;1.10;;;0.52;;
9138;SDS011;4604;48.616;9.548;2023-11-19T10:01:11;1.00;;;0.60;;
9138;SDS011;4604;48.616;9.548;2023-11-19T10:03:37;0.70;;;0.70;;
9138;SDS011;4604;48.616;9.548;2023-11-19T10:06:06;0.47;;;0.47;;
9138;SDS011;4604;48.616;9.548;2023-11-19T10:08:33;0.40;;;0.40;;
9138;SDS011;4604;48.616;9.548;2023-11-19T10:11:00;0.47;;;0.47;;
9138;SDS011;4604;48.616;9.548;2023-11-19T10:13:28;0.93;;;0.60;;
9138;SDS011;4604;48.616;9.548;2023-11-19T10:15:55;0.60;;;0.60;;
9138;SDS011;4604;48.616;9.548;2023-11-19T10:18:23;0.25;;;0.25;;
9138;SDS011;4604;48.616;9.548;2023-11-19T10:20:51;0.38;;;0.38;;
9138;SDS011;4604;48.616;9.548;2023-11-19T10:23:20;1.52;;;0.50;;
9138;SDS011;4604;48.616;9.548;2023-11-19T10:25:46;0.83;;;0.60;;
9138;SDS011;4604;48.616;9.548;2023-11-19T10:28:14;0.50;;;0.50;;
9138;SDS011;4604;48.616;9.548;2023-11-19T10:30:43;0.43;;;0.40;;
9138;SDS011;4604;48.616;9.548;2023-11-19T10:33:11;2.17;;;0.98;;
9138;SDS011;4604;48.616;9.548;2023-11-19T10:35:51;1.38;;;1.17;;
9138;SDS011;4604;48.616;9.548;2023-11-19T10:38:19;1.23;;;0.60;;
9138;SDS011;4604;48.616;9.548;2023-11-19T10:40:47;1.42;;;0.43;;
9138;SDS011;4604;48.616;9.548;2023-11-19T10:43:14;0.63;;;0.57;;
9138;SDS011;4604;48.616;9.548;2023-11-19T10:45:40;1.17;;;0.93;;
9138;SDS011;4604;48.616;9.548;2023-11-19T10:48:09;4.88;;;1.17;;
9138;SDS011;4604;48.616;9.548;2023-11-19T10:50:37;6.13;;;1.48;;
9138;SDS011;4604;48.616;9.548;2023-11-19T10:53:06;2.20;;;1.05;;
9138;SDS011;4604;48.616;9.548;2023-11-19T10:55:34;0.70;;;0.55;;
9138;SDS011;4604;48.616;9.548;2023-11-19T10:58:03;1.48;;;0.90;;
9138;SDS011;4604;48.616;9.548;2023-11-19T11:00:34;1.10;;;0.90;;
9138;SDS011;4604;48.616;9.548;2023-11-19T11:03:06;3.67;;;2.67;;
9138;SDS011;4604;48.616;9.548;2023-11-19T11:05:37;0.77;;;0.77;;
9138;SDS011;4604;48.616;9.548;2023-11-19T11:08:05;3.20;;;1.90;;
9138;SDS011;4604;48.616;9.548;2023-11-19T11:10:34;2.40;;;1.80;;
9138;SDS011;4604;48.616;9.548;2023-11-19T11:13:05;1.77;;;0.75;;
9138;SDS011;4604;48.616;9.548;2023-11-19T11:15:32;0.80;;;0.80;;
9138;SDS011;4604;48.616;9.548;2023-11-19T11:18:00;1.60;;;1.00;;
9138;SDS011;4604;48.616;9.548;2023-11-19T11:20:30;1.60;;;0.80;;
9138;SDS011;4604;48.616;9.548;2023-11-19T11:26:00;0.60;;;0.60;;
9138;SDS011;4604;48.616;9.548;2023-11-19T11:28:41;2.10;;;1.13;;
9138;SDS011;4604;48.616;9.548;2023-11-19T11:31:20;0.65;;;0.65;;
9138;SDS011;4604;48.616;9.548;2023-11-19T11:34:11;2.78;;;1.60;;
9138;SDS011;4604;48.616;9.548;2023-11-19T11:36:52;3.65;;;1.60;;
9138;SDS011;4604;48.616;9.548;2023-11-19T11:39:24;1.15;;;1.02;;
9138;SDS011;4604;48.616;9.548;2023-11-19T11:44:57;2.70;;;0.80;;
9138;SDS011;4604;48.616;9.548;2023-11-19T11:47:25;2.45;;;1.20;;
9138;SDS011;4604;48.616;9.548;2023-11-19T11:49:51;1.30;;;1.20;;
9138;SDS011;4604;48.616;9.548;2023-11-19T11:52:19;1.95;;;1.10;;
9138;SDS011;4604;48.616;9.548;2023-11-19T11:54:46;2.13;;;0.80;;
9138;SDS011;4604;48.616;9.548;2023-11-19T11:57:13;0.63;;;0.63;;
9138;SDS011;4604;48.616;9.548;2023-11-19T11:59:48;2.10;;;1.05;;
9138;SDS011;4604;48.616;9.548;2023-11-19T12:02:16;1.25;;;0.95;;
9138;SDS011;4604;48.616;9.548;2023-11-19T12:04:46;1.20;;;0.73;;
9138;SDS011;4604;48.616;9.548;2023-11-19T12:07:14;0.93;;;0.83;;
9138;SDS011;4604;48.616;9.548;2023-11-19T12:09:46;0.90;;;0.80;;
9138;SDS011;4604;48.616;9.548;2023-11-19T12:12:17;3.08;;;0.80;;
9138;SDS011;4604;48.616;9.548;2023-11-19T12:17:47;0.88;;;0.80;;
9138;SDS011;4604;48.616;9.548;2023-11-19T12:20:15;3.05;;;1.10;;
9138;SDS011;4604;48.616;9.548;2023-11-19T12:22:43;1.30;;;0.93;;
9138;SDS011;4604;48.616;9.548;2023-11-19T12:25:13;0.75;;;0.75;;
9138;SDS011;4604;48.616;9.548;2023-11-19T12:27:41;1.42;;;0.70;;
9138;SDS011;4604;48.616;9.548;2023-11-19T12:30:10;3.13;;;0.87;;
9138;SDS011;4604;48.616;9.548;2023-11-19T12:32:37;0.88;;;0.80;;
9138;SDS011;4604;48.616;9.548;2023-11-19T12:35:05;1.20;;;0.50;;
9138;SDS011;4604;48.616;9.548;2023-11-19T12:37:38;0.50;;;0.50;;
9138;SDS011;4604;48.616;9.548;2023-11-19T12:40:10;0.63;;;0.63;;
9138;SDS011;4604;48.616;9.548;2023-11-19T12:42:42;0.85;;;0.68;;
9138;SDS011;4604;48.616;9.548;2023-11-19T12:45:09;0.80;;;0.68;;
9138;SDS011;4604;48.616;9.548;2023-11-19T12:47:39;1.92;;;1.20;;
9138;SDS011;4604;48.616;9.548;2023-11-19T12:50:06;2.40;;;2.05;;
9138;SDS011;4604;48.616;9.548;2023-11-19T12:52:34;1.40;;;1.30;;
9138;SDS011;4604;48.616;9.548;2023-11-19T12:55:01;1.20;;;1.10;;
9138;SDS011;4604;48.616;9.548;2023-11-19T12:57:39;2.33;;;0.55;;
9138;SDS011;4604;48.616;9.548;2023-11-19T13:00:07;0.70;;;0.70;;
9138;SDS011;4604;48.616;9.548;2023-11-19T13:02:45;0.80;;;0.57;;
9138;SDS011;4604;48.616;9.548;2023-11-19T13:05:26;0.52;;;0.52;;
9138;SDS011;4604;48.616;9.548;2023-11-19T13:07:59;1.10;;;0.80;;
9138;SDS011;4604;48.616;9.548;2023-11-19T13:10:26;0.55;;;0.55;;
9138;SDS011;4604;48.616;9.548;2023-11-19T13:13:04;1.57;;;0.80;;
9138;SDS011;4604;48.616;9.548;2023-11-19T13:15:34;0.77;;;0.63;;
9138;SDS011;4604;48.616;9.548;2023-11-19T13:18:02;0.43;;;0.43;;
9138;SDS011;4604;48.616;9.548;2023-11-19T13:20:29;0.88;;;0.80;;
9138;SDS011;4604;48.616;9.548;2023-11-19T13:22:57;0.70;;;0.70;;
9138;SDS011;4604;48.616;9.548;2023-11-19T13:25:24;0.95;;;0.90;;
9138;SDS011;4604;48.616;9.548;2023-11-19T13:27:51;1.17;;;0.90;;
9138;SDS011;4604;48.616;9.548;2023-11-19T13:30:19;1.27;;;0.88;;
9138;SDS011;4604;48.616;9.548;2023-11-19T13:32:47;1.05;;;0.82;;
9138;SDS011;4604;48.616;9.548;2023-11-19T13:35:14;2.30;;;0.95;;
9138;SDS011;4604;48.616;9.548;2023-11-19T13:37:42;2.55;;;1.40;;
9138;SDS011;4604;48.616;9.548;2023-11-19T13:40:09;2.75;;;1.02;;
9138;SDS011;4604;48.616;9.548;2023-11-19T13:42:40;1.40;;;1.20;;
9138;SDS011;4604;48.616;9.548;2023-11-19T13:45:13;1.70;;;0.93;;
9138;SDS011;4604;48.616;9.548;2023-11-19T13:47:44;1.83;;;1.30;;
9138;SDS011;4604;48.616;9.548;2023-11-19T13:50:12;1.33;;;1.23;;
9138;SDS011;4604;48.616;9.548;2023-11-19T13:52:43;1.57;;;0.97;;
9138;SDS011;4604;48.616;9.548;2023-11-19T13:55:11;1.33;;;0.88;;
9138;SDS011;4604;48.616;9.548;2023-11-19T13:57:39;1.40;;;1.20;;
9138;SDS011;4604;48.616;9.548;2023-11-19T14:00:07;1.02;;;0.80;;
9138;SDS011;4604;48.616;9.548;2023-11-19T14:02:37;1.20;;;0.70;;
9138;SDS011;4604;48.616;9.548;2023-11-19T14:05:06;1.50;;;0.77;;
9138;SDS011;4604;48.616;9.548;2023-11-19T14:07:33;1.83;;;0.68;;
9138;SDS011;4604;48.616;9.548;2023-11-19T14:10:00;2.05;;;0.90;;
9138;SDS011;4604;48.616;9.548;2023-11-19T14:12:26;1.17;;;0.63;;
9138;SDS011;4604;48.616;9.548;2023-11-19T14:14:53;1.52;;;1.00;;
9138;SDS011;4604;48.616;9.548;2023-11-19T14:17:20;1.05;;;0.95;;
9138;SDS011;4604;48.616;9.548;2023-11-19T14:19:46;0.68;;;0.65;;
9138;SDS011;4604;48.616;9.548;2023-11-19T14:22:14;0.87;;;0.80;;
9138;SDS011;4604;48.616;9.548;2023-11-19T14:24:41;2.95;;;1.08;;
9138;SDS011;4604;48.616;9.548;2023-11-19T14:27:08;1.60;;;1.10;;
9138;SDS011;4604;48.616;9.548;2023-11-19T14:29:34;3.20;;;1.40;;
9138;SDS011;4604;48.616;9.548;2023-11-19T14:32:01;2.13;;;1.23;;
9138;SDS011;4604;48.616;9.548;2023-11-19T14:34:29;1.23;;;1.03;;
9138;SDS011;4604;48.616;9.548;2023-11-19T14:36:55;2.40;;;0.82;;
9138;SDS011;4604;48.616;9.548;2023-11-19T14:39:23;1.10;;;0.80;;
9138;SDS011;4604;48.616;9.548;2023-11-19T14:41:50;1.40;;;1.00;;
9138;SDS011;4604;48.616;9.548;2023-11-19T14:44:17;2.37;;;0.87;;
9138;SDS011;4604;48.616;9.548;2023-11-19T14:46:45;1.45;;;1.35;;
9138;SDS011;4604;48.616;9.548;2023-11-19T14:49:12;0.80;;;0.73;;
9138;SDS011;4604;48.616;9.548;2023-11-19T14:51:39;1.90;;;1.00;;
9138;SDS011;4604;48.616;9.548;2023-11-19T14:54:05;0.88;;;0.77;;
9138;SDS011;4604;48.616;9.548;2023-11-19T14:56:33;1.95;;;1.00;;
9138;SDS011;4604;48.616;9.548;2023-11-19T14:59:00;1.00;;;0.80;;
9138;SDS011;4604;48.616;9.548;2023-11-19T15:01:26;5.13;;;1.20;;
9138;SDS011;4604;48.616;9.548;2023-11-19T15:03:53;1.75;;;1.35;;
9138;SDS011;4604;48.616;9.548;2023-11-19T15:06:22;1.20;;;1.10;;
9138;SDS011;4604;48.616;9.548;2023-11-19T15:08:49;2.57;;;1.20;;
9138;SDS011;4604;48.616;9.548;2023-11-19T15:11:17;2.67;;;1.60;;
9138;SDS011;4604;48.616;9.548;2023-11-19T15:13:45;1.93;;;1.50;;
9138;SDS011;4604;48.616;9.548;2023-11-19T15:16:12;2.60;;;1.73;;
9138;SDS011;4604;48.616;9.548;2023-11-19T15:18:42;1.93;;;1.30;;
9138;SDS011;4604;48.616;9.548;2023-11-19T15:21:08;1.83;;;1.50;;
9138;SDS011;4604;48.616;9.548;2023-11-19T15:23:35;2.60;;;1.40;;
9138;SDS011;4604;48.616;9.548;2023-11-19T15:26:02;1.20;;;1.10;;
9138;SDS011;4604;48.616;9.548;2023-11-19T15:28:29;1.50;;;1.37;;